sensor_id;sensor_type;location;lat;lon;timestamp;P1;durP1;ratioP1;P2;durP2;ratioP2
5827;SDS011;42583;50.240;8.444;2022-09-09T00:11:08;2.87;;;0.80;;
5827;SDS011;42583;50.240;8.444;2022-09-09T00:26:22;4.57;;;0.70;;
5827;SDS011;42583;50.240;8.444;2022-09-09T00:41:47;3.20;;;0.85;;
5827;SDS011;42583;50.240;8.444;2022-09-09T01:12:41;6.28;;;0.98;;
5827;SDS011;42583;50.240;8.444;2022-09-09T01:42:45;2.22;;;0.80;;
5827;SDS011;42583;50.240;8.444;2022-09-09T02:13:14;4.82;;;1.20;;
5827;SDS011;42583;50.240;8.444;2022-09-09T02:28:18;4.95;;;1.10;;
5827;SDS011;42583;50.240;8.444;2022-09-09T02:43:21;3.78;;;1.10;;
5827;SDS011;42583;50.240;8.444;2022-09-09T02:58:22;6.95;;;1.40;;
5827;SDS011;42583;50.240;8.444;2022-09-09T03:13:23;8.00;;;1.42;;
5827;SDS011;42583;50.240;8.444;2022-09-09T03:28:25;9.50;;;1.50;;
5827;SDS011;42583;50.240;8.444;2022-09-09T03:43:30;5.03;;;1.40;;
5827;SDS011;42583;50.240;8.444;2022-09-09T03:58:33;8.30;;;2.17;;
5827;SDS011;42583;50.240;8.444;2022-09-09T04:13:34;6.80;;;2.63;;
5827;SDS011;42583;50.240;8.444;2022-09-09T04:28:37;6.77;;;2.63;;
5827;SDS011;42583;50.240;8.444;2022-09-09T04:43:38;10.07;;;3.40;;
5827;SDS011;42583;50.240;8.444;2022-09-09T04:58:39;9.45;;;4.30;;
5827;SDS011;42583;50.240;8.444;2022-09-09T05:13:43;7.37;;;3.10;;
5827;SDS011;42583;50.240;8.444;2022-09-09T05:28:44;6.93;;;3.70;;
5827;SDS011;42583;50.240;8.444;2022-09-09T05:43:47;5.90;;;3.30;;
5827;SDS011;42583;50.240;8.444;2022-09-09T05:58:48;8.13;;;2.90;;
5827;SDS011;42583;50.240;8.444;2022-09-09T06:13:50;5.45;;;2.90;;
5827;SDS011;42583;50.240;8.444;2022-09-09T06:28:54;6.43;;;2.20;;
5827;SDS011;42583;50.240;8.444;2022-09-09T06:43:55;5.10;;;2.22;;
5827;SDS011;42583;50.240;8.444;2022-09-09T06:58:57;10.50;;;3.35;;
5827;SDS011;42583;50.240;8.444;2022-09-09T07:13:59;5.70;;;3.90;;
5827;SDS011;42583;50.240;8.444;2022-09-09T07:29:00;11.30;;;5.30;;
5827;SDS011;42583;50.240;8.444;2022-09-09T07:44:05;12.05;;;5.28;;
5827;SDS011;42583;50.240;8.444;2022-09-09T07:59:11;10.25;;;4.50;;
5827;SDS011;42583;50.240;8.444;2022-09-09T08:14:12;7.65;;;2.90;;
5827;SDS011;42583;50.240;8.444;2022-09-09T08:29:13;9.70;;;2.80;;
5827;SDS011;42583;50.240;8.444;2022-09-09T08:59:45;9.80;;;2.00;;
5827;SDS011;42583;50.240;8.444;2022-09-09T09:14:47;6.30;;;1.90;;
5827;SDS011;42583;50.240;8.444;2022-09-09T09:29:48;8.52;;;2.20;;
5827;SDS011;42583;50.240;8.444;2022-09-09T09:44:52;7.97;;;2.17;;
5827;SDS011;42583;50.240;8.444;2022-09-09T10:15:24;5.97;;;1.20;;
5827;SDS011;42583;50.240;8.444;2022-09-09T11:16:45;4.10;;;0.93;;
5827;SDS011;42583;50.240;8.444;2022-09-09T11:47:01;3.50;;;0.77;;
5827;SDS011;42583;50.240;8.444;2022-09-09T12:32:17;4.35;;;0.80;;
5827;SDS011;42583;50.240;8.444;2022-09-09T12:47:36;5.55;;;0.90;;
5827;SDS011;42583;50.240;8.444;2022-09-09T13:02:53;7.30;;;1.00;;
5827;SDS011;42583;50.240;8.444;2022-09-09T13:17:56;3.92;;;0.80;;
5827;SDS011;42583;50.240;8.444;2022-09-09T13:33:01;2.13;;;0.50;;
5827;SDS011;42583;50.240;8.444;2022-09-09T13:48:10;3.75;;;0.60;;
5827;SDS011;42583;50.240;8.444;2022-09-09T14:03:12;4.10;;;0.77;;
5827;SDS011;42583;50.240;8.444;2022-09-09T14:18:12;4.13;;;0.90;;
5827;SDS011;42583;50.240;8.444;2022-09-09T14:33:14;4.40;;;0.90;;
5827;SDS011;42583;50.240;8.444;2022-09-09T14:48:18;5.00;;;0.90;;
5827;SDS011;42583;50.240;8.444;2022-09-09T15:03:19;3.70;;;0.57;;
5827;SDS011;42583;50.240;8.444;2022-09-09T15:18:20;4.30;;;0.55;;
5827;SDS011;42583;50.240;8.444;2022-09-09T15:33:21;3.73;;;0.67;;
5827;SDS011;42583;50.240;8.444;2022-09-09T15:48:26;3.40;;;0.60;;
5827;SDS011;42583;50.240;8.444;2022-09-09T16:03:34;3.20;;;0.80;;
5827;SDS011;42583;50.240;8.444;2022-09-09T16:18:38;3.50;;;0.80;;
5827;SDS011;42583;50.240;8.444;2022-09-09T16:33:40;3.67;;;0.80;;
5827;SDS011;42583;50.240;8.444;2022-09-09T16:48:42;5.78;;;0.85;;
5827;SDS011;42583;50.240;8.444;2022-09-09T17:03:44;4.20;;;0.85;;
5827;SDS011;42583;50.240;8.444;2022-09-09T17:18:44;5.05;;;0.88;;
5827;SDS011;42583;50.240;8.444;2022-09-09T17:33:46;3.90;;;0.80;;
5827;SDS011;42583;50.240;8.444;2022-09-09T17:48:49;3.30;;;0.70;;
5827;SDS011;42583;50.240;8.444;2022-09-09T18:03:52;2.40;;;0.80;;
5827;SDS011;42583;50.240;8.444;2022-09-09T18:18:54;3.08;;;0.88;;
5827;SDS011;42583;50.240;8.444;2022-09-09T18:33:58;2.13;;;0.60;;
5827;SDS011;42583;50.240;8.444;2022-09-09T18:49:01;3.57;;;0.80;;
5827;SDS011;42583;50.240;8.444;2022-09-09T19:04:03;5.18;;;0.70;;
5827;SDS011;42583;50.240;8.444;2022-09-09T19:19:17;0.80;;;0.60;;
5827;SDS011;42583;50.240;8.444;2022-09-09T19:34:19;3.90;;;1.30;;
5827;SDS011;42583;50.240;8.444;2022-09-09T19:49:21;3.17;;;1.00;;
5827;SDS011;42583;50.240;8.444;2022-09-09T20:04:21;1.88;;;0.70;;
5827;SDS011;42583;50.240;8.444;2022-09-09T20:19:22;4.03;;;0.63;;
5827;SDS011;42583;50.240;8.444;2022-09-09T20:34:22;2.15;;;0.80;;
5827;SDS011;42583;50.240;8.444;2022-09-09T20:49:26;1.75;;;1.23;;
5827;SDS011;42583;50.240;8.444;2022-09-09T21:04:26;3.25;;;1.70;;
5827;SDS011;42583;50.240;8.444;2022-09-09T21:19:28;3.10;;;1.67;;
5827;SDS011;42583;50.240;8.444;2022-09-09T21:34:28;3.60;;;2.50;;
5827;SDS011;42583;50.240;8.444;2022-09-09T21:49:29;5.32;;;2.67;;
5827;SDS011;42583;50.240;8.444;2022-09-09T22:04:29;13.38;;;3.50;;
5827;SDS011;42583;50.240;8.444;2022-09-09T22:19:30;9.45;;;3.92;;
5827;SDS011;42583;50.240;8.444;2022-09-09T22:34:30;35.88;;;4.28;;
5827;SDS011;42583;50.240;8.444;2022-09-09T22:49:32;42.33;;;4.10;;
5827;SDS011;42583;50.240;8.444;2022-09-09T23:04:32;203.45;;;5.97;;
5827;SDS011;42583;50.240;8.444;2022-09-09T23:19:33;206.88;;;5.20;;
5827;SDS011;42583;50.240;8.444;2022-09-09T23:34:34;308.55;;;6.47;;
5827;SDS011;42583;50.240;8.444;2022-09-09T23:49:35;10.15;;;4.57;;
